sensor_id;sensor_type;location;lat;lon;timestamp;P1;durP1;ratioP1;P2;durP2;ratioP2
19059;SDS011;9663;48.996;8.334;2023-12-20T00:01:06;5.53;;;2.50;;
19059;SDS011;9663;48.996;8.334;2023-12-20T00:03:32;4.65;;;2.30;;
19059;SDS011;9663;48.996;8.334;2023-12-20T00:05:58;4.55;;;2.15;;
19059;SDS011;9663;48.996;8.334;2023-12-20T00:08:23;4.43;;;2.05;;
19059;SDS011;9663;48.996;8.334;2023-12-20T00:10:49;3.72;;;1.90;;
19059;SDS011;9663;48.996;8.334;2023-12-20T00:13:15;4.15;;;1.73;;
19059;SDS011;9663;48.996;8.334;2023-12-20T00:15:40;4.28;;;2.08;;
19059;SDS011;9663;48.996;8.334;2023-12-20T00:18:06;3.95;;;2.00;;
19059;SDS011;9663;48.996;8.334;2023-12-20T00:20:32;4.18;;;2.00;;
19059;SDS011;9663;48.996;8.334;2023-12-20T00:22:57;3.85;;;1.98;;
19059;SDS011;9663;48.996;8.334;2023-12-20T00:25:24;4.03;;;2.20;;
19059;SDS011;9663;48.996;8.334;2023-12-20T00:27:50;4.63;;;2.10;;
19059;SDS011;9663;48.996;8.334;2023-12-20T00:30:15;4.05;;;1.92;;
19059;SDS011;9663;48.996;8.334;2023-12-20T00:32:41;3.83;;;1.90;;
19059;SDS011;9663;48.996;8.334;2023-12-20T00:35:15;3.63;;;1.73;;
19059;SDS011;9663;48.996;8.334;2023-12-20T00:37:42;4.13;;;1.98;;
19059;SDS011;9663;48.996;8.334;2023-12-20T00:40:08;4.10;;;1.90;;
19059;SDS011;9663;48.996;8.334;2023-12-20T00:42:35;3.85;;;1.90;;
19059;SDS011;9663;48.996;8.334;2023-12-20T00:45:01;4.22;;;2.08;;
19059;SDS011;9663;48.996;8.334;2023-12-20T00:47:27;4.40;;;2.10;;
19059;SDS011;9663;48.996;8.334;2023-12-20T00:49:53;3.70;;;1.50;;
19059;SDS011;9663;48.996;8.334;2023-12-20T00:52:19;3.42;;;1.50;;
19059;SDS011;9663;48.996;8.334;2023-12-20T00:54:44;4.28;;;1.70;;
19059;SDS011;9663;48.996;8.334;2023-12-20T00:57:10;3.67;;;1.77;;
19059;SDS011;9663;48.996;8.334;2023-12-20T00:59:36;3.80;;;1.92;;
19059;SDS011;9663;48.996;8.334;2023-12-20T01:02:02;4.65;;;2.15;;
19059;SDS011;9663;48.996;8.334;2023-12-20T01:04:27;4.10;;;1.90;;
19059;SDS011;9663;48.996;8.334;2023-12-20T01:06:53;4.00;;;1.80;;
19059;SDS011;9663;48.996;8.334;2023-12-20T01:09:19;4.07;;;2.03;;
19059;SDS011;9663;48.996;8.334;2023-12-20T01:11:45;4.97;;;1.83;;
19059;SDS011;9663;48.996;8.334;2023-12-20T01:14:13;4.30;;;1.88;;
19059;SDS011;9663;48.996;8.334;2023-12-20T01:16:39;3.70;;;1.52;;
19059;SDS011;9663;48.996;8.334;2023-12-20T01:19:04;4.82;;;1.70;;
19059;SDS011;9663;48.996;8.334;2023-12-20T01:21:30;3.90;;;1.90;;
19059;SDS011;9663;48.996;8.334;2023-12-20T01:23:56;4.32;;;1.80;;
19059;SDS011;9663;48.996;8.334;2023-12-20T01:26:21;3.80;;;1.58;;
19059;SDS011;9663;48.996;8.334;2023-12-20T01:28:47;3.95;;;1.88;;
19059;SDS011;9663;48.996;8.334;2023-12-20T01:31:13;3.22;;;1.45;;
19059;SDS011;9663;48.996;8.334;2023-12-20T01:33:38;4.50;;;1.88;;
19059;SDS011;9663;48.996;8.334;2023-12-20T01:36:04;3.75;;;1.63;;
19059;SDS011;9663;48.996;8.334;2023-12-20T01:38:30;3.45;;;1.70;;
19059;SDS011;9663;48.996;8.334;2023-12-20T01:40:56;3.80;;;1.80;;
19059;SDS011;9663;48.996;8.334;2023-12-20T01:43:21;4.25;;;1.80;;
19059;SDS011;9663;48.996;8.334;2023-12-20T01:45:47;3.35;;;1.60;;
19059;SDS011;9663;48.996;8.334;2023-12-20T01:48:13;3.70;;;1.70;;
19059;SDS011;9663;48.996;8.334;2023-12-20T01:50:41;3.55;;;1.52;;
19059;SDS011;9663;48.996;8.334;2023-12-20T01:53:08;4.38;;;1.77;;
19059;SDS011;9663;48.996;8.334;2023-12-20T01:55:39;4.20;;;1.80;;
19059;SDS011;9663;48.996;8.334;2023-12-20T01:58:07;4.25;;;1.65;;
19059;SDS011;9663;48.996;8.334;2023-12-20T02:00:36;3.80;;;1.73;;
19059;SDS011;9663;48.996;8.334;2023-12-20T02:03:02;4.75;;;1.63;;
19059;SDS011;9663;48.996;8.334;2023-12-20T02:05:32;3.35;;;1.38;;
19059;SDS011;9663;48.996;8.334;2023-12-20T02:08:00;3.47;;;1.50;;
19059;SDS011;9663;48.996;8.334;2023-12-20T02:10:26;7.32;;;2.13;;
19059;SDS011;9663;48.996;8.334;2023-12-20T02:12:52;7.57;;;1.70;;
19059;SDS011;9663;48.996;8.334;2023-12-20T02:15:18;3.50;;;1.70;;
19059;SDS011;9663;48.996;8.334;2023-12-20T02:17:44;3.65;;;1.75;;
19059;SDS011;9663;48.996;8.334;2023-12-20T02:20:12;3.05;;;1.30;;
19059;SDS011;9663;48.996;8.334;2023-12-20T02:22:37;3.25;;;1.40;;
19059;SDS011;9663;48.996;8.334;2023-12-20T02:25:03;3.70;;;1.70;;
19059;SDS011;9663;48.996;8.334;2023-12-20T02:27:29;2.95;;;1.50;;
19059;SDS011;9663;48.996;8.334;2023-12-20T02:29:55;3.63;;;1.60;;
19059;SDS011;9663;48.996;8.334;2023-12-20T02:32:21;3.47;;;1.60;;
19059;SDS011;9663;48.996;8.334;2023-12-20T02:34:50;3.75;;;1.83;;
19059;SDS011;9663;48.996;8.334;2023-12-20T02:37:17;3.38;;;1.42;;
19059;SDS011;9663;48.996;8.334;2023-12-20T02:39:42;3.45;;;1.50;;
19059;SDS011;9663;48.996;8.334;2023-12-20T02:42:08;3.25;;;1.35;;
19059;SDS011;9663;48.996;8.334;2023-12-20T02:44:34;3.05;;;1.45;;
19059;SDS011;9663;48.996;8.334;2023-12-20T02:46:59;3.25;;;1.40;;
19059;SDS011;9663;48.996;8.334;2023-12-20T02:49:25;3.70;;;1.50;;
19059;SDS011;9663;48.996;8.334;2023-12-20T02:51:51;3.50;;;1.45;;
19059;SDS011;9663;48.996;8.334;2023-12-20T02:54:16;3.22;;;1.30;;
19059;SDS011;9663;48.996;8.334;2023-12-20T02:56:42;3.22;;;1.45;;
19059;SDS011;9663;48.996;8.334;2023-12-20T02:59:07;3.25;;;1.50;;
19059;SDS011;9663;48.996;8.334;2023-12-20T03:01:34;3.35;;;1.30;;
19059;SDS011;9663;48.996;8.334;2023-12-20T03:04:00;3.20;;;1.60;;
19059;SDS011;9663;48.996;8.334;2023-12-20T03:06:26;3.10;;;1.30;;
19059;SDS011;9663;48.996;8.334;2023-12-20T03:08:52;3.40;;;1.70;;
19059;SDS011;9663;48.996;8.334;2023-12-20T03:11:18;2.92;;;1.40;;
19059;SDS011;9663;48.996;8.334;2023-12-20T03:13:43;3.10;;;1.50;;
19059;SDS011;9663;48.996;8.334;2023-12-20T03:16:09;3.55;;;1.50;;
19059;SDS011;9663;48.996;8.334;2023-12-20T03:18:36;3.08;;;1.50;;
19059;SDS011;9663;48.996;8.334;2023-12-20T03:21:02;3.10;;;1.50;;
19059;SDS011;9663;48.996;8.334;2023-12-20T03:23:29;3.10;;;1.35;;
19059;SDS011;9663;48.996;8.334;2023-12-20T03:25:57;3.15;;;1.38;;
19059;SDS011;9663;48.996;8.334;2023-12-20T03:28:23;3.63;;;1.50;;
19059;SDS011;9663;48.996;8.334;2023-12-20T03:30:49;2.85;;;1.17;;
19059;SDS011;9663;48.996;8.334;2023-12-20T03:33:15;3.78;;;1.58;;
19059;SDS011;9663;48.996;8.334;2023-12-20T03:35:41;3.90;;;1.30;;
19059;SDS011;9663;48.996;8.334;2023-12-20T03:38:06;2.90;;;1.20;;
19059;SDS011;9663;48.996;8.334;2023-12-20T03:40:33;3.30;;;1.50;;
19059;SDS011;9663;48.996;8.334;2023-12-20T03:42:58;2.97;;;1.15;;
19059;SDS011;9663;48.996;8.334;2023-12-20T03:45:24;3.03;;;1.30;;
19059;SDS011;9663;48.996;8.334;2023-12-20T03:47:50;2.65;;;1.10;;
19059;SDS011;9663;48.996;8.334;2023-12-20T03:50:20;3.40;;;1.45;;
19059;SDS011;9663;48.996;8.334;2023-12-20T03:52:47;3.30;;;1.50;;
19059;SDS011;9663;48.996;8.334;2023-12-20T03:55:13;3.03;;;1.25;;
19059;SDS011;9663;48.996;8.334;2023-12-20T03:57:39;4.00;;;1.40;;
19059;SDS011;9663;48.996;8.334;2023-12-20T04:00:05;3.63;;;1.45;;
19059;SDS011;9663;48.996;8.334;2023-12-20T04:02:38;3.47;;;1.50;;
19059;SDS011;9663;48.996;8.334;2023-12-20T04:05:08;3.47;;;1.42;;
19059;SDS011;9663;48.996;8.334;2023-12-20T04:07:35;2.60;;;1.20;;
19059;SDS011;9663;48.996;8.334;2023-12-20T04:10:01;3.03;;;1.25;;
19059;SDS011;9663;48.996;8.334;2023-12-20T04:12:28;2.72;;;1.15;;
19059;SDS011;9663;48.996;8.334;2023-12-20T04:14:55;3.88;;;1.33;;
19059;SDS011;9663;48.996;8.334;2023-12-20T04:17:21;2.72;;;1.15;;
19059;SDS011;9663;48.996;8.334;2023-12-20T04:19:48;2.88;;;1.27;;
19059;SDS011;9663;48.996;8.334;2023-12-20T04:22:14;3.15;;;1.33;;
19059;SDS011;9663;48.996;8.334;2023-12-20T04:24:40;2.67;;;1.20;;
19059;SDS011;9663;48.996;8.334;2023-12-20T04:27:09;2.58;;;1.10;;
19059;SDS011;9663;48.996;8.334;2023-12-20T04:29:34;2.67;;;1.08;;
19059;SDS011;9663;48.996;8.334;2023-12-20T04:32:00;2.60;;;1.13;;
19059;SDS011;9663;48.996;8.334;2023-12-20T04:34:26;2.75;;;1.10;;
19059;SDS011;9663;48.996;8.334;2023-12-20T04:36:51;2.97;;;1.30;;
19059;SDS011;9663;48.996;8.334;2023-12-20T04:39:18;3.10;;;1.30;;
19059;SDS011;9663;48.996;8.334;2023-12-20T04:41:43;2.65;;;1.10;;
19059;SDS011;9663;48.996;8.334;2023-12-20T04:44:09;2.75;;;1.10;;
19059;SDS011;9663;48.996;8.334;2023-12-20T04:46:35;2.60;;;1.00;;
19059;SDS011;9663;48.996;8.334;2023-12-20T04:49:00;2.65;;;1.10;;
19059;SDS011;9663;48.996;8.334;2023-12-20T04:51:26;3.05;;;1.30;;
19059;SDS011;9663;48.996;8.334;2023-12-20T04:53:52;3.17;;;1.20;;
19059;SDS011;9663;48.996;8.334;2023-12-20T04:56:18;2.85;;;1.20;;
19059;SDS011;9663;48.996;8.334;2023-12-20T04:58:43;3.03;;;1.30;;
19059;SDS011;9663;48.996;8.334;2023-12-20T05:01:09;3.50;;;1.40;;
19059;SDS011;9663;48.996;8.334;2023-12-20T05:03:35;2.78;;;1.10;;
19059;SDS011;9663;48.996;8.334;2023-12-20T05:06:00;2.58;;;1.20;;
19059;SDS011;9663;48.996;8.334;2023-12-20T05:08:26;2.42;;;1.17;;
19059;SDS011;9663;48.996;8.334;2023-12-20T05:10:55;3.13;;;1.15;;
19059;SDS011;9663;48.996;8.334;2023-12-20T05:13:21;2.72;;;1.20;;
19059;SDS011;9663;48.996;8.334;2023-12-20T05:15:47;2.83;;;1.20;;
19059;SDS011;9663;48.996;8.334;2023-12-20T05:18:13;2.92;;;1.30;;
19059;SDS011;9663;48.996;8.334;2023-12-20T05:20:39;2.80;;;1.30;;
19059;SDS011;9663;48.996;8.334;2023-12-20T05:23:05;2.88;;;1.08;;
19059;SDS011;9663;48.996;8.334;2023-12-20T05:25:31;3.20;;;1.20;;
19059;SDS011;9663;48.996;8.334;2023-12-20T05:27:57;2.65;;;1.10;;
19059;SDS011;9663;48.996;8.334;2023-12-20T05:30:22;3.00;;;1.17;;
19059;SDS011;9663;48.996;8.334;2023-12-20T05:32:48;2.85;;;1.30;;
19059;SDS011;9663;48.996;8.334;2023-12-20T05:35:14;3.00;;;1.30;;
19059;SDS011;9663;48.996;8.334;2023-12-20T05:37:40;3.13;;;1.27;;
19059;SDS011;9663;48.996;8.334;2023-12-20T05:40:10;2.40;;;1.05;;
19059;SDS011;9663;48.996;8.334;2023-12-20T05:42:36;2.83;;;1.20;;
19059;SDS011;9663;48.996;8.334;2023-12-20T05:45:03;2.92;;;1.25;;
19059;SDS011;9663;48.996;8.334;2023-12-20T05:47:30;2.90;;;1.30;;
19059;SDS011;9663;48.996;8.334;2023-12-20T05:49:56;3.10;;;1.48;;
19059;SDS011;9663;48.996;8.334;2023-12-20T05:52:21;2.67;;;1.00;;
19059;SDS011;9663;48.996;8.334;2023-12-20T05:54:47;2.50;;;1.10;;
19059;SDS011;9663;48.996;8.334;2023-12-20T05:57:13;3.10;;;1.20;;
19059;SDS011;9663;48.996;8.334;2023-12-20T05:59:39;3.38;;;1.20;;
19059;SDS011;9663;48.996;8.334;2023-12-20T06:02:05;2.88;;;1.13;;
19059;SDS011;9663;48.996;8.334;2023-12-20T06:04:31;2.55;;;1.08;;
19059;SDS011;9663;48.996;8.334;2023-12-20T06:06:57;2.45;;;1.10;;
19059;SDS011;9663;48.996;8.334;2023-12-20T06:09:22;2.40;;;0.95;;
19059;SDS011;9663;48.996;8.334;2023-12-20T06:11:48;2.90;;;1.20;;
19059;SDS011;9663;48.996;8.334;2023-12-20T06:14:14;2.53;;;1.13;;
19059;SDS011;9663;48.996;8.334;2023-12-20T06:16:40;3.13;;;1.30;;
19059;SDS011;9663;48.996;8.334;2023-12-20T06:19:06;2.50;;;1.00;;
19059;SDS011;9663;48.996;8.334;2023-12-20T06:21:31;2.70;;;1.20;;
19059;SDS011;9663;48.996;8.334;2023-12-20T06:23:58;3.40;;;1.35;;
19059;SDS011;9663;48.996;8.334;2023-12-20T06:26:27;2.38;;;0.90;;
19059;SDS011;9663;48.996;8.334;2023-12-20T06:28:53;2.92;;;1.15;;
19059;SDS011;9663;48.996;8.334;2023-12-20T06:31:18;2.42;;;0.98;;
19059;SDS011;9663;48.996;8.334;2023-12-20T06:33:44;2.80;;;1.10;;
19059;SDS011;9663;48.996;8.334;2023-12-20T06:36:13;2.20;;;1.00;;
19059;SDS011;9663;48.996;8.334;2023-12-20T06:38:39;2.10;;;0.85;;
19059;SDS011;9663;48.996;8.334;2023-12-20T06:41:05;2.63;;;1.05;;
19059;SDS011;9663;48.996;8.334;2023-12-20T06:43:31;2.10;;;0.90;;
19059;SDS011;9663;48.996;8.334;2023-12-20T06:45:58;3.60;;;1.20;;
19059;SDS011;9663;48.996;8.334;2023-12-20T06:48:25;2.95;;;1.00;;
19059;SDS011;9663;48.996;8.334;2023-12-20T06:50:51;2.20;;;0.90;;
19059;SDS011;9663;48.996;8.334;2023-12-20T06:53:16;2.45;;;0.95;;
19059;SDS011;9663;48.996;8.334;2023-12-20T06:55:42;2.25;;;0.90;;
19059;SDS011;9663;48.996;8.334;2023-12-20T06:58:08;1.67;;;0.77;;
19059;SDS011;9663;48.996;8.334;2023-12-20T07:00:34;2.25;;;0.95;;
19059;SDS011;9663;48.996;8.334;2023-12-20T07:02:59;3.00;;;1.17;;
19059;SDS011;9663;48.996;8.334;2023-12-20T07:05:25;2.25;;;1.00;;
19059;SDS011;9663;48.996;8.334;2023-12-20T07:07:51;2.17;;;0.90;;
19059;SDS011;9663;48.996;8.334;2023-12-20T07:10:17;2.05;;;0.90;;
19059;SDS011;9663;48.996;8.334;2023-12-20T07:12:43;2.08;;;0.90;;
19059;SDS011;9663;48.996;8.334;2023-12-20T07:15:09;2.55;;;0.90;;
19059;SDS011;9663;48.996;8.334;2023-12-20T07:17:35;2.30;;;1.00;;
19059;SDS011;9663;48.996;8.334;2023-12-20T07:20:00;2.20;;;0.90;;
19059;SDS011;9663;48.996;8.334;2023-12-20T07:22:29;2.20;;;0.90;;
19059;SDS011;9663;48.996;8.334;2023-12-20T07:24:56;2.50;;;0.90;;
19059;SDS011;9663;48.996;8.334;2023-12-20T07:27:23;2.85;;;1.17;;
19059;SDS011;9663;48.996;8.334;2023-12-20T07:29:49;1.75;;;0.80;;
19059;SDS011;9663;48.996;8.334;2023-12-20T07:32:15;2.95;;;1.08;;
19059;SDS011;9663;48.996;8.334;2023-12-20T07:34:40;2.40;;;1.00;;
19059;SDS011;9663;48.996;8.334;2023-12-20T07:37:06;3.05;;;0.90;;
19059;SDS011;9663;48.996;8.334;2023-12-20T07:39:31;1.60;;;0.80;;
19059;SDS011;9663;48.996;8.334;2023-12-20T07:41:57;2.50;;;1.00;;
19059;SDS011;9663;48.996;8.334;2023-12-20T07:44:23;1.88;;;0.82;;
19059;SDS011;9663;48.996;8.334;2023-12-20T07:46:48;2.78;;;1.10;;
19059;SDS011;9663;48.996;8.334;2023-12-20T07:49:15;2.08;;;0.98;;
19059;SDS011;9663;48.996;8.334;2023-12-20T07:51:40;3.08;;;1.10;;
19059;SDS011;9663;48.996;8.334;2023-12-20T07:54:06;2.85;;;1.20;;
19059;SDS011;9663;48.996;8.334;2023-12-20T07:56:33;2.38;;;1.02;;
19059;SDS011;9663;48.996;8.334;2023-12-20T07:58:58;2.47;;;1.10;;
19059;SDS011;9663;48.996;8.334;2023-12-20T08:01:24;2.00;;;0.90;;
19059;SDS011;9663;48.996;8.334;2023-12-20T08:03:50;2.45;;;0.90;;
19059;SDS011;9663;48.996;8.334;2023-12-20T08:06:15;1.88;;;0.77;;
19059;SDS011;9663;48.996;8.334;2023-12-20T08:08:42;2.08;;;0.93;;
19059;SDS011;9663;48.996;8.334;2023-12-20T08:11:08;2.33;;;1.02;;
19059;SDS011;9663;48.996;8.334;2023-12-20T08:13:33;2.58;;;1.00;;
19059;SDS011;9663;48.996;8.334;2023-12-20T08:15:59;1.85;;;0.88;;
19059;SDS011;9663;48.996;8.334;2023-12-20T08:18:25;2.50;;;1.00;;
19059;SDS011;9663;48.996;8.334;2023-12-20T08:20:50;2.33;;;1.00;;
19059;SDS011;9663;48.996;8.334;2023-12-20T08:23:18;3.08;;;1.17;;
19059;SDS011;9663;48.996;8.334;2023-12-20T08:25:46;2.70;;;1.20;;
19059;SDS011;9663;48.996;8.334;2023-12-20T08:28:12;3.47;;;1.30;;
19059;SDS011;9663;48.996;8.334;2023-12-20T08:30:37;2.75;;;1.00;;
19059;SDS011;9663;48.996;8.334;2023-12-20T08:33:03;2.67;;;1.10;;
19059;SDS011;9663;48.996;8.334;2023-12-20T08:35:29;2.47;;;1.05;;
19059;SDS011;9663;48.996;8.334;2023-12-20T08:37:56;2.33;;;1.00;;
19059;SDS011;9663;48.996;8.334;2023-12-20T08:40:21;3.13;;;1.10;;
19059;SDS011;9663;48.996;8.334;2023-12-20T08:42:47;2.35;;;0.98;;
19059;SDS011;9663;48.996;8.334;2023-12-20T08:45:12;2.95;;;1.20;;
19059;SDS011;9663;48.996;8.334;2023-12-20T08:47:38;3.08;;;1.20;;
19059;SDS011;9663;48.996;8.334;2023-12-20T08:50:06;2.53;;;1.08;;
19059;SDS011;9663;48.996;8.334;2023-12-20T08:52:32;3.53;;;1.10;;
19059;SDS011;9663;48.996;8.334;2023-12-20T08:54:58;3.42;;;1.30;;
19059;SDS011;9663;48.996;8.334;2023-12-20T08:57:23;2.45;;;0.93;;
19059;SDS011;9663;48.996;8.334;2023-12-20T08:59:50;3.05;;;1.10;;
19059;SDS011;9663;48.996;8.334;2023-12-20T09:02:16;2.55;;;1.05;;
19059;SDS011;9663;48.996;8.334;2023-12-20T09:04:42;2.40;;;1.10;;
19059;SDS011;9663;48.996;8.334;2023-12-20T09:07:27;2.50;;;1.15;;
19059;SDS011;9663;48.996;8.334;2023-12-20T09:09:55;2.88;;;1.00;;
19059;SDS011;9663;48.996;8.334;2023-12-20T09:12:21;2.53;;;1.00;;
19059;SDS011;9663;48.996;8.334;2023-12-20T09:14:47;2.22;;;0.80;;
19059;SDS011;9663;48.996;8.334;2023-12-20T09:17:15;3.42;;;0.98;;
19059;SDS011;9663;48.996;8.334;2023-12-20T09:19:42;2.50;;;1.20;;
19059;SDS011;9663;48.996;8.334;2023-12-20T09:22:11;2.42;;;1.02;;
19059;SDS011;9663;48.996;8.334;2023-12-20T09:24:37;2.75;;;1.10;;
19059;SDS011;9663;48.996;8.334;2023-12-20T09:27:04;2.95;;;1.13;;
19059;SDS011;9663;48.996;8.334;2023-12-20T09:29:30;2.65;;;1.10;;
19059;SDS011;9663;48.996;8.334;2023-12-20T09:31:56;3.20;;;1.20;;
19059;SDS011;9663;48.996;8.334;2023-12-20T09:34:22;2.17;;;0.90;;
19059;SDS011;9663;48.996;8.334;2023-12-20T09:36:49;2.67;;;1.00;;
19059;SDS011;9663;48.996;8.334;2023-12-20T09:39:15;2.80;;;1.00;;
19059;SDS011;9663;48.996;8.334;2023-12-20T09:41:54;2.30;;;0.82;;
19059;SDS011;9663;48.996;8.334;2023-12-20T09:44:31;2.20;;;0.85;;
19059;SDS011;9663;48.996;8.334;2023-12-20T09:47:04;3.53;;;1.00;;
19059;SDS011;9663;48.996;8.334;2023-12-20T09:49:30;4.65;;;1.30;;
19059;SDS011;9663;48.996;8.334;2023-12-20T09:51:57;2.80;;;0.90;;
19059;SDS011;9663;48.996;8.334;2023-12-20T09:54:25;5.78;;;1.30;;
19059;SDS011;9663;48.996;8.334;2023-12-20T09:56:53;3.55;;;1.10;;
19059;SDS011;9663;48.996;8.334;2023-12-20T09:59:19;3.80;;;1.13;;
19059;SDS011;9663;48.996;8.334;2023-12-20T10:01:45;3.42;;;1.10;;
19059;SDS011;9663;48.996;8.334;2023-12-20T10:04:11;2.63;;;0.82;;
19059;SDS011;9663;48.996;8.334;2023-12-20T10:06:44;2.47;;;0.90;;
19059;SDS011;9663;48.996;8.334;2023-12-20T10:09:10;4.43;;;1.42;;
19059;SDS011;9663;48.996;8.334;2023-12-20T10:11:37;3.50;;;1.00;;
19059;SDS011;9663;48.996;8.334;2023-12-20T10:14:04;4.65;;;1.00;;
19059;SDS011;9663;48.996;8.334;2023-12-20T10:16:32;3.65;;;1.20;;
19059;SDS011;9663;48.996;8.334;2023-12-20T10:18:59;4.53;;;1.10;;
19059;SDS011;9663;48.996;8.334;2023-12-20T10:21:29;3.05;;;1.02;;
19059;SDS011;9663;48.996;8.334;2023-12-20T10:23:55;2.60;;;1.00;;
19059;SDS011;9663;48.996;8.334;2023-12-20T10:26:23;2.97;;;0.95;;
19059;SDS011;9663;48.996;8.334;2023-12-20T10:28:55;3.08;;;1.00;;
19059;SDS011;9663;48.996;8.334;2023-12-20T10:31:32;3.67;;;0.95;;
19059;SDS011;9663;48.996;8.334;2023-12-20T10:33:59;2.45;;;0.90;;
19059;SDS011;9663;48.996;8.334;2023-12-20T10:36:28;3.80;;;1.10;;
19059;SDS011;9663;48.996;8.334;2023-12-20T10:38:56;3.45;;;1.10;;
19059;SDS011;9663;48.996;8.334;2023-12-20T10:41:27;5.07;;;1.15;;
19059;SDS011;9663;48.996;8.334;2023-12-20T10:46:30;4.35;;;1.20;;
19059;SDS011;9663;48.996;8.334;2023-12-20T10:48:59;4.47;;;1.17;;
19059;SDS011;9663;48.996;8.334;2023-12-20T10:51:27;2.88;;;0.95;;
19059;SDS011;9663;48.996;8.334;2023-12-20T10:53:55;3.60;;;1.10;;
19059;SDS011;9663;48.996;8.334;2023-12-20T10:56:21;3.78;;;1.23;;
19059;SDS011;9663;48.996;8.334;2023-12-20T10:58:51;4.28;;;1.38;;
19059;SDS011;9663;48.996;8.334;2023-12-20T11:01:17;2.75;;;1.05;;
19059;SDS011;9663;48.996;8.334;2023-12-20T11:03:53;4.57;;;1.50;;
19059;SDS011;9663;48.996;8.334;2023-12-20T11:15:12;4.63;;;1.25;;
19059;SDS011;9663;48.996;8.334;2023-12-20T11:17:16;3.65;;;1.15;;
19059;SDS011;9663;48.996;8.334;2023-12-20T11:22:27;3.47;;;1.20;;
19059;SDS011;9663;48.996;8.334;2023-12-20T11:25:02;4.80;;;1.40;;
19059;SDS011;9663;48.996;8.334;2023-12-20T11:27:34;2.67;;;1.17;;
19059;SDS011;9663;48.996;8.334;2023-12-20T11:30:10;3.63;;;1.27;;
19059;SDS011;9663;48.996;8.334;2023-12-20T11:32:36;4.45;;;1.52;;
19059;SDS011;9663;48.996;8.334;2023-12-20T11:37:37;4.53;;;1.25;;
19059;SDS011;9663;48.996;8.334;2023-12-20T11:40:08;4.10;;;1.33;;
19059;SDS011;9663;48.996;8.334;2023-12-20T11:42:43;5.93;;;1.48;;
19059;SDS011;9663;48.996;8.334;2023-12-20T11:45:14;3.45;;;1.20;;
19059;SDS011;9663;48.996;8.334;2023-12-20T11:47:45;3.47;;;1.13;;
19059;SDS011;9663;48.996;8.334;2023-12-20T11:50:14;2.90;;;1.15;;
19059;SDS011;9663;48.996;8.334;2023-12-20T11:52:41;4.88;;;1.25;;
19059;SDS011;9663;48.996;8.334;2023-12-20T11:55:07;3.38;;;1.10;;
19059;SDS011;9663;48.996;8.334;2023-12-20T11:57:33;3.33;;;1.08;;
19059;SDS011;9663;48.996;8.334;2023-12-20T11:59:59;4.28;;;1.30;;
19059;SDS011;9663;48.996;8.334;2023-12-20T12:02:25;3.97;;;1.40;;
19059;SDS011;9663;48.996;8.334;2023-12-20T12:04:50;4.75;;;1.35;;
19059;SDS011;9663;48.996;8.334;2023-12-20T12:07:16;4.22;;;1.52;;
19059;SDS011;9663;48.996;8.334;2023-12-20T12:09:43;4.00;;;1.17;;
19059;SDS011;9663;48.996;8.334;2023-12-20T12:12:09;3.20;;;1.30;;
19059;SDS011;9663;48.996;8.334;2023-12-20T12:14:37;2.95;;;1.02;;
19059;SDS011;9663;48.996;8.334;2023-12-20T12:17:05;4.82;;;1.35;;
19059;SDS011;9663;48.996;8.334;2023-12-20T12:19:37;5.10;;;1.50;;
19059;SDS011;9663;48.996;8.334;2023-12-20T12:22:05;3.85;;;1.10;;
19059;SDS011;9663;48.996;8.334;2023-12-20T12:24:39;5.75;;;1.50;;
19059;SDS011;9663;48.996;8.334;2023-12-20T12:27:06;4.00;;;1.30;;
19059;SDS011;9663;48.996;8.334;2023-12-20T12:29:32;4.30;;;1.20;;
19059;SDS011;9663;48.996;8.334;2023-12-20T12:31:59;5.15;;;1.58;;
19059;SDS011;9663;48.996;8.334;2023-12-20T12:34:29;5.55;;;1.77;;
19059;SDS011;9663;48.996;8.334;2023-12-20T12:36:56;5.55;;;1.48;;
19059;SDS011;9663;48.996;8.334;2023-12-20T12:39:23;5.30;;;1.25;;
19059;SDS011;9663;48.996;8.334;2023-12-20T12:41:53;4.15;;;1.13;;
19059;SDS011;9663;48.996;8.334;2023-12-20T12:44:19;4.30;;;1.27;;
19059;SDS011;9663;48.996;8.334;2023-12-20T12:46:45;3.55;;;1.05;;
19059;SDS011;9663;48.996;8.334;2023-12-20T12:49:12;7.20;;;2.00;;
19059;SDS011;9663;48.996;8.334;2023-12-20T12:51:38;3.53;;;1.25;;
19059;SDS011;9663;48.996;8.334;2023-12-20T12:54:04;3.95;;;1.17;;
19059;SDS011;9663;48.996;8.334;2023-12-20T12:56:29;5.00;;;1.13;;
19059;SDS011;9663;48.996;8.334;2023-12-20T12:58:55;4.10;;;1.00;;
19059;SDS011;9663;48.996;8.334;2023-12-20T13:01:21;3.08;;;0.98;;
19059;SDS011;9663;48.996;8.334;2023-12-20T13:03:47;3.55;;;1.10;;
19059;SDS011;9663;48.996;8.334;2023-12-20T13:06:12;4.40;;;1.33;;
19059;SDS011;9663;48.996;8.334;2023-12-20T13:08:38;4.10;;;1.20;;
19059;SDS011;9663;48.996;8.334;2023-12-20T13:11:04;5.25;;;1.30;;
19059;SDS011;9663;48.996;8.334;2023-12-20T13:13:30;5.50;;;1.45;;
19059;SDS011;9663;48.996;8.334;2023-12-20T13:15:56;4.35;;;1.23;;
19059;SDS011;9663;48.996;8.334;2023-12-20T13:18:22;3.33;;;1.10;;
19059;SDS011;9663;48.996;8.334;2023-12-20T13:20:48;5.57;;;1.35;;
19059;SDS011;9663;48.996;8.334;2023-12-20T13:23:15;5.20;;;1.33;;
19059;SDS011;9663;48.996;8.334;2023-12-20T13:25:43;4.45;;;1.40;;
19059;SDS011;9663;48.996;8.334;2023-12-20T13:28:12;3.35;;;1.17;;
19059;SDS011;9663;48.996;8.334;2023-12-20T13:30:38;3.92;;;1.08;;
19059;SDS011;9663;48.996;8.334;2023-12-20T13:33:05;3.92;;;1.15;;
19059;SDS011;9663;48.996;8.334;2023-12-20T13:35:32;3.75;;;1.20;;
19059;SDS011;9663;48.996;8.334;2023-12-20T13:37:59;3.55;;;1.20;;
19059;SDS011;9663;48.996;8.334;2023-12-20T13:40:25;3.80;;;1.05;;
19059;SDS011;9663;48.996;8.334;2023-12-20T13:42:51;4.50;;;1.35;;
19059;SDS011;9663;48.996;8.334;2023-12-20T13:45:17;4.10;;;1.00;;
19059;SDS011;9663;48.996;8.334;2023-12-20T13:47:43;4.95;;;1.20;;
19059;SDS011;9663;48.996;8.334;2023-12-20T13:50:09;3.83;;;1.17;;
19059;SDS011;9663;48.996;8.334;2023-12-20T13:52:35;3.78;;;1.10;;
19059;SDS011;9663;48.996;8.334;2023-12-20T13:55:01;4.97;;;1.40;;
19059;SDS011;9663;48.996;8.334;2023-12-20T13:57:27;3.85;;;1.15;;
19059;SDS011;9663;48.996;8.334;2023-12-20T13:59:54;5.25;;;1.15;;
19059;SDS011;9663;48.996;8.334;2023-12-20T14:02:22;4.95;;;1.20;;
19059;SDS011;9663;48.996;8.334;2023-12-20T14:04:48;4.63;;;1.00;;
19059;SDS011;9663;48.996;8.334;2023-12-20T14:07:14;2.67;;;0.98;;
19059;SDS011;9663;48.996;8.334;2023-12-20T14:09:40;5.60;;;1.35;;
19059;SDS011;9663;48.996;8.334;2023-12-20T14:12:10;3.35;;;1.15;;
19059;SDS011;9663;48.996;8.334;2023-12-20T14:14:37;3.53;;;1.00;;
19059;SDS011;9663;48.996;8.334;2023-12-20T14:17:03;4.25;;;1.10;;
19059;SDS011;9663;48.996;8.334;2023-12-20T14:19:29;5.53;;;1.38;;
19059;SDS011;9663;48.996;8.334;2023-12-20T14:21:54;3.58;;;1.10;;
19059;SDS011;9663;48.996;8.334;2023-12-20T14:24:20;3.92;;;1.20;;
19059;SDS011;9663;48.996;8.334;2023-12-20T14:26:46;4.90;;;1.65;;
19059;SDS011;9663;48.996;8.334;2023-12-20T14:29:12;4.65;;;1.17;;
19059;SDS011;9663;48.996;8.334;2023-12-20T14:31:37;3.90;;;1.10;;
19059;SDS011;9663;48.996;8.334;2023-12-20T14:34:06;4.60;;;1.25;;
19059;SDS011;9663;48.996;8.334;2023-12-20T14:36:33;5.25;;;1.25;;
19059;SDS011;9663;48.996;8.334;2023-12-20T14:39:00;3.97;;;1.05;;
19059;SDS011;9663;48.996;8.334;2023-12-20T14:41:27;3.45;;;1.10;;
19059;SDS011;9663;48.996;8.334;2023-12-20T14:43:53;4.10;;;1.00;;
19059;SDS011;9663;48.996;8.334;2023-12-20T14:46:19;4.13;;;1.17;;
19059;SDS011;9663;48.996;8.334;2023-12-20T14:48:45;5.25;;;1.50;;
19059;SDS011;9663;48.996;8.334;2023-12-20T14:51:11;4.45;;;1.15;;
19059;SDS011;9663;48.996;8.334;2023-12-20T14:53:38;4.05;;;1.20;;
19059;SDS011;9663;48.996;8.334;2023-12-20T14:56:04;3.97;;;1.10;;
19059;SDS011;9663;48.996;8.334;2023-12-20T14:58:30;4.60;;;1.23;;
19059;SDS011;9663;48.996;8.334;2023-12-20T15:00:56;4.38;;;1.30;;
19059;SDS011;9663;48.996;8.334;2023-12-20T15:03:23;4.55;;;1.20;;
19059;SDS011;9663;48.996;8.334;2023-12-20T15:05:49;4.03;;;1.20;;
19059;SDS011;9663;48.996;8.334;2023-12-20T15:08:14;3.72;;;0.95;;
19059;SDS011;9663;48.996;8.334;2023-12-20T15:10:40;3.08;;;0.93;;
19059;SDS011;9663;48.996;8.334;2023-12-20T15:13:06;3.65;;;1.23;;